Time;durP1;ratioP1;P1;durP2;ratioP2;P2;SDS_P1;SDS_P2;PMS_P1;PMS_P2;Temp;Humidity;BMP_temperature;BMP_pressure;BME280_temperature;BME280_humidity;BME280_pressure;Samples;Min_cycle;Max_cycle;Signal;HPM_P1;HPM_P2
2023/04/27 00:00:44;;;;;;;8.45;5.25;;;3.40;99.90;;;;;;7303052;32;20522;-55
2023/04/27 00:04:46;;;;;;;8.38;4.72;;;3.30;99.90;;;;;;7302483;32;20287;-55
2023/04/27 00:08:48;;;;;;;10.13;4.22;;;3.20;99.90;;;;;;7298440;32;20146;-55
2023/04/27 00:12:50;;;;;;;9.10;5.05;;;3.10;99.90;;;;;;7297145;32;20171;-55
2023/04/27 00:16:52;;;;;;;7.00;4.45;;;3.10;99.90;;;;;;7301145;32;20191;-55
2023/04/27 00:20:54;;;;;;;9.20;4.97;;;3.00;99.90;;;;;;7302506;32;20157;-55
2023/04/27 00:24:55;;;;;;;6.35;4.45;;;2.90;99.90;;;;;;7299214;32;20186;-54
2023/04/27 00:28:57;;;;;;;8.45;4.95;;;2.90;99.90;;;;;;7304249;32;20195;-55
2023/04/27 00:32:59;;;;;;;8.68;4.60;;;2.80;99.90;;;;;;7304820;32;20108;-55
2023/04/27 00:37:01;;;;;;;7.00;4.55;;;2.80;99.90;;;;;;7301565;32;20142;-55
2023/04/27 00:41:04;;;;;;;10.07;5.32;;;2.60;99.90;;;;;;7305152;32;20115;-55
2023/04/27 00:45:07;;;;;;;6.45;4.65;;;2.60;99.90;;;;;;7304303;32;20198;-55
2023/04/27 00:49:08;;;;;;;10.13;4.80;;;2.50;99.90;;;;;;7302826;32;20099;-54
2023/04/27 00:53:10;;;;;;;10.50;4.87;;;2.50;99.90;;;;;;7311040;32;20368;-55
2023/04/27 00:57:12;;;;;;;8.55;4.87;;;2.40;99.90;;;;;;7307691;32;20128;-55
2023/04/27 01:01:14;;;;;;;10.00;4.97;;;2.30;99.90;;;;;;7301003;32;20640;-55
2023/04/27 01:05:16;;;;;;;5.97;4.60;;;2.30;99.90;;;;;;7302383;32;20698;-55
2023/04/27 01:09:18;;;;;;;8.38;4.53;;;2.20;99.90;;;;;;7307839;32;20564;-55
2023/04/27 01:13:21;;;;;;;8.77;4.97;;;2.20;99.90;;;;;;7298289;32;20665;-55
2023/04/27 01:17:23;;;;;;;7.18;4.75;;;2.10;99.90;;;;;;7311503;32;20099;-55
2023/04/27 01:21:26;;;;;;;8.30;4.45;;;2.00;99.90;;;;;;7314104;32;20115;-55
2023/04/27 01:25:27;;;;;;;8.43;4.90;;;2.00;99.90;;;;;;7307399;32;20103;-56
2023/04/27 01:29:29;;;;;;;8.27;4.87;;;2.00;99.90;;;;;;7305665;32;20103;-54
2023/04/27 01:33:31;;;;;;;6.97;4.68;;;2.00;99.90;;;;;;7307966;32;20209;-55
2023/04/27 01:37:33;;;;;;;9.35;4.65;;;1.90;99.90;;;;;;7311745;32;20121;-54
2023/04/27 01:41:36;;;;;;;8.80;4.82;;;1.80;99.90;;;;;;7305611;32;20158;-56
2023/04/27 01:45:37;;;;;;;8.50;4.28;;;1.80;99.90;;;;;;7305223;32;20125;-55
2023/04/27 01:49:39;;;;;;;10.32;5.05;;;1.60;99.90;;;;;;7307134;32;20127;-56
2023/04/27 01:53:41;;;;;;;7.97;4.87;;;1.60;99.90;;;;;;7304490;32;20246;-55
2023/04/27 01:57:43;;;;;;;13.98;4.82;;;1.60;99.90;;;;;;7310635;32;20129;-54
2023/04/27 02:01:45;;;;;;;8.52;4.05;;;1.60;99.90;;;;;;7305499;32;20231;-55
2023/04/27 02:05:47;;;;;;;9.77;5.03;;;1.50;99.90;;;;;;7306334;32;20274;-55
2023/04/27 02:09:48;;;;;;;6.37;4.25;;;1.50;99.90;;;;;;7307560;32;20122;-55
2023/04/27 02:13:50;;;;;;;7.10;4.80;;;1.40;99.90;;;;;;7307628;32;20159;-55
2023/04/27 02:17:52;;;;;;;8.32;4.60;;;1.40;99.90;;;;;;7300349;32;20665;-55
2023/04/27 02:21:53;;;;;;;7.53;4.62;;;1.40;99.90;;;;;;7297109;32;20123;-54
2023/04/27 02:25:55;;;;;;;7.82;4.62;;;1.30;99.90;;;;;;7306829;32;20103;-55
2023/04/27 02:29:57;;;;;;;8.35;4.75;;;1.20;99.90;;;;;;7300663;32;20112;-54
2023/04/27 02:33:59;;;;;;;12.90;4.82;;;1.20;99.90;;;;;;7301232;32;20205;-55
2023/04/27 02:38:01;;;;;;;6.87;4.78;;;1.20;99.90;;;;;;7298766;32;20324;-55
2023/04/27 02:42:03;;;;;;;7.80;4.80;;;1.20;99.90;;;;;;7304789;32;20439;-55
2023/04/27 02:46:05;;;;;;;6.43;4.57;;;1.10;99.90;;;;;;7305158;32;20121;-56
2023/04/27 02:50:07;;;;;;;7.82;4.62;;;1.10;99.90;;;;;;7307053;32;20128;-55
2023/04/27 02:54:08;;;;;;;6.30;4.70;;;1.00;99.90;;;;;;7303094;32;20219;-55
2023/04/27 02:58:12;;;;;;;8.45;4.97;;;1.10;99.90;;;;;;7308476;32;20489;-54
2023/04/27 03:02:13;;;;;;;8.40;5.07;;;1.10;99.90;;;;;;7301622;32;22278;-55
2023/04/27 03:06:15;;;;;;;10.50;4.57;;;1.00;99.90;;;;;;7296726;32;20740;-55
2023/04/27 03:10:17;;;;;;;10.30;4.95;;;1.00;99.90;;;;;;7306198;32;20534;-55
2023/04/27 03:14:19;;;;;;;10.50;4.87;;;1.00;99.90;;;;;;7302010;32;20125;-55
2023/04/27 03:18:21;;;;;;;7.90;5.10;;;1.10;99.90;;;;;;7296072;32;20166;-55
2023/04/27 03:22:22;;;;;;;10.10;5.87;;;1.10;99.90;;;;;;7301444;32;20218;-55
2023/04/27 03:26:25;;;;;;;9.77;5.47;;;1.30;99.90;;;;;;7309026;32;20118;-55
2023/04/27 03:30:26;;;;;;;12.18;7.07;;;1.40;99.90;;;;;;7302834;32;20191;-56
2023/04/27 03:34:28;;;;;;;13.23;7.45;;;1.50;99.90;;;;;;7299950;32;20126;-55
2023/04/27 03:38:30;;;;;;;16.17;8.20;;;1.70;99.90;;;;;;7308706;32;20185;-56
2023/04/27 03:42:32;;;;;;;13.57;7.55;;;2.00;99.90;;;;;;7303433;32;20752;-55
2023/04/27 03:46:34;;;;;;;15.23;8.90;;;2.10;99.90;;;;;;7297986;32;20290;-55
2023/04/27 03:50:35;;;;;;;19.45;8.35;;;2.20;99.90;;;;;;7304839;32;20119;-54
2023/04/27 03:54:37;;;;;;;13.77;7.72;;;2.40;99.90;;;;;;7306851;32;20186;-57
2023/04/27 03:58:39;;;;;;;15.00;8.15;;;2.50;99.90;;;;;;7299147;32;20264;-55
2023/04/27 04:02:41;;;;;;;13.82;8.40;;;2.50;99.90;;;;;;7306557;32;20275;-55
2023/04/27 04:06:43;;;;;;;13.95;7.72;;;2.70;99.90;;;;;;7307078;32;20112;-55
2023/04/27 04:10:44;;;;;;;15.55;9.02;;;2.70;99.90;;;;;;7309556;32;20511;-55
2023/04/27 04:14:47;;;;;;;15.27;8.50;;;2.80;99.90;;;;;;7302199;32;20186;-55
2023/04/27 04:18:50;;;;;;;22.52;8.90;;;2.90;99.90;;;;;;7306219;32;20797;-55
2023/04/27 04:22:51;;;;;;;15.05;7.53;;;3.00;99.90;;;;;;7310730;32;20146;-55
2023/04/27 04:26:53;;;;;;;18.00;7.97;;;3.00;99.90;;;;;;7309678;32;20245;-55
2023/04/27 04:30:55;;;;;;;18.85;8.50;;;3.00;99.90;;;;;;7312096;32;20164;-55
2023/04/27 04:34:57;;;;;;;15.88;7.75;;;3.10;99.90;;;;;;7302276;32;20213;-55
2023/04/27 04:38:59;;;;;;;17.08;9.05;;;3.10;99.90;;;;;;7305648;32;20108;-55
2023/04/27 04:43:01;;;;;;;14.30;8.90;;;3.10;99.90;;;;;;7308928;32;20736;-54
2023/04/27 04:47:04;;;;;;;18.48;9.80;;;3.10;99.90;;;;;;7301636;32;20561;-55
2023/04/27 04:51:06;;;;;;;16.98;8.63;;;3.10;99.90;;;;;;7312747;32;20840;-55
2023/04/27 04:55:08;;;;;;;21.12;8.27;;;3.10;99.90;;;;;;7306413;32;20215;-57
2023/04/27 04:59:09;;;;;;;16.45;8.90;;;3.20;99.90;;;;;;7306207;32;20112;-57
2023/04/27 05:03:11;;;;;;;16.95;8.13;;;3.40;99.90;;;;;;7304245;32;20099;-56
2023/04/27 05:07:13;;;;;;;13.45;7.97;;;3.40;99.90;;;;;;7297836;32;20623;-55
2023/04/27 05:11:17;;;;;;;17.20;8.85;;;3.50;99.90;;;;;;7305431;32;20095;-56
2023/04/27 05:15:19;;;;;;;18.50;8.55;;;3.60;99.90;;;;;;7304270;32;20100;-55
2023/04/27 05:19:21;;;;;;;18.15;8.70;;;3.70;99.90;;;;;;7305497;32;20178;-55
2023/04/27 05:23:23;;;;;;;12.90;8.30;;;3.80;99.90;;;;;;7305390;32;20238;-55
2023/04/27 05:27:25;;;;;;;15.32;8.23;;;4.00;99.90;;;;;;7307017;32;20210;-55
2023/04/27 05:31:26;;;;;;;19.12;9.68;;;4.10;99.90;;;;;;7307532;32;20121;-55
2023/04/27 05:35:29;;;;;;;16.50;7.57;;;4.20;99.90;;;;;;7307683;32;20535;-55
2023/04/27 05:39:31;;;;;;;15.50;8.32;;;4.30;99.90;;;;;;7308641;32;20257;-55
2023/04/27 05:43:34;;;;;;;14.05;8.55;;;4.40;99.90;;;;;;7304527;32;20714;-57
2023/04/27 05:47:35;;;;;;;13.02;7.57;;;4.50;99.90;;;;;;7302099;32;20100;-55
2023/04/27 05:51:37;;;;;;;18.50;8.18;;;4.70;99.90;;;;;;7300950;32;20198;-55
2023/04/27 05:55:39;;;;;;;15.85;8.20;;;4.80;99.90;;;;;;7307040;32;20493;-55
2023/04/27 05:59:42;;;;;;;18.58;8.15;;;4.90;99.90;;;;;;7304634;32;20104;-56
2023/04/27 06:03:43;;;;;;;13.10;7.07;;;5.10;99.90;;;;;;7303588;32;20134;-55
2023/04/27 06:07:47;;;;;;;15.48;7.70;;;5.20;99.90;;;;;;7304481;32;20126;-56
2023/04/27 06:11:48;;;;;;;16.90;7.18;;;5.40;99.90;;;;;;7305058;32;20522;-55
2023/04/27 06:15:50;;;;;;;11.88;7.00;;;5.50;99.90;;;;;;7305010;32;20132;-55
2023/04/27 06:19:52;;;;;;;12.43;6.97;;;5.60;99.90;;;;;;7297422;32;20107;-57
2023/04/27 06:23:53;;;;;;;13.05;7.22;;;5.80;99.90;;;;;;7301805;32;20154;-57
2023/04/27 06:27:56;;;;;;;13.52;6.25;;;5.80;99.90;;;;;;7307812;32;20925;-55
2023/04/27 06:31:57;;;;;;;13.48;6.47;;;6.00;99.90;;;;;;7313455;32;20104;-56
2023/04/27 06:36:00;;;;;;;13.52;6.28;;;6.10;99.90;;;;;;7301436;32;20153;-56
2023/04/27 06:40:03;;;;;;;14.48;6.55;;;6.10;99.90;;;;;;7309458;32;20503;-56
2023/04/27 06:44:05;;;;;;;14.30;6.50;;;6.30;99.90;;;;;;7310480;32;20517;-55
2023/04/27 06:48:07;;;;;;;14.13;6.20;;;6.40;99.90;;;;;;7304652;32;20131;-55
2023/04/27 06:52:08;;;;;;;10.25;5.57;;;6.50;99.90;;;;;;7298092;32;20109;-55
2023/04/27 06:56:11;;;;;;;10.50;5.25;;;6.60;99.90;;;;;;7305192;32;20119;-57
2023/04/27 07:00:13;;;;;;;9.93;5.57;;;6.80;99.90;;;;;;7301808;32;20592;-57
2023/04/27 07:04:15;;;;;;;9.55;5.12;;;7.20;99.90;;;;;;7301625;32;20119;-56
2023/04/27 07:08:16;;;;;;;8.73;4.87;;;7.60;99.90;;;;;;7299407;32;20104;-56
2023/04/27 07:12:18;;;;;;;12.65;5.07;;;7.70;99.90;;;;;;7307181;32;20929;-56
2023/04/27 07:16:20;;;;;;;15.73;5.43;;;8.00;99.90;;;;;;7308879;32;20117;-56
2023/04/27 07:20:22;;;;;;;11.88;5.75;;;8.10;99.90;;;;;;7302893;32;20107;-56
2023/04/27 07:24:24;;;;;;;8.63;4.93;;;8.10;99.90;;;;;;7312456;32;20096;-56
2023/04/27 07:28:28;;;;;;;11.70;5.10;;;8.00;99.90;;;;;;7303908;32;20561;-56
2023/04/27 07:32:30;;;;;;;11.32;5.35;;;8.00;99.90;;;;;;7304395;32;20100;-57
2023/04/27 07:36:32;;;;;;;10.35;5.28;;;7.90;99.90;;;;;;7304205;32;20173;-56
2023/04/27 07:40:33;;;;;;;9.23;4.72;;;7.80;99.90;;;;;;7301569;32;20121;-57
2023/04/27 07:44:35;;;;;;;11.93;4.75;;;7.90;99.90;;;;;;7298509;32;20806;-57
2023/04/27 07:48:38;;;;;;;9.35;4.45;;;8.10;99.90;;;;;;7300517;32;20097;-56
2023/04/27 07:52:40;;;;;;;9.65;4.37;;;8.30;99.90;;;;;;7305954;32;20237;-56
2023/04/27 07:56:42;;;;;;;9.05;4.47;;;8.50;99.90;;;;;;7304887;32;20138;-57
2023/04/27 08:00:44;;;;;;;5.55;3.85;;;8.70;99.90;;;;;;7295914;32;20130;-56
2023/04/27 08:04:46;;;;;;;7.30;3.67;;;8.70;99.90;;;;;;7296415;32;20242;-56
2023/04/27 08:08:49;;;;;;;9.32;4.32;;;9.00;99.90;;;;;;7301946;32;20119;-57
2023/04/27 08:12:51;;;;;;;8.98;4.30;;;9.10;99.90;;;;;;7297219;32;20105;-56
2023/04/27 08:16:52;;;;;;;10.55;4.07;;;9.30;99.90;;;;;;7300858;32;20214;-57
2023/04/27 08:20:54;;;;;;;6.65;3.53;;;9.40;99.90;;;;;;7303972;32;20242;-57
2023/04/27 08:24:56;;;;;;;6.57;3.47;;;9.90;99.90;;;;;;7308265;32;20190;-57
2023/04/27 08:28:58;;;;;;;9.75;4.28;;;10.10;99.90;;;;;;7297959;32;20191;-57
2023/04/27 08:33:00;;;;;;;6.75;3.87;;;10.20;99.90;;;;;;7305592;32;20114;-57
2023/04/27 08:37:03;;;;;;;7.57;4.28;;;10.00;99.90;;;;;;7299072;32;20709;-56
2023/04/27 08:41:04;;;;;;;8.60;4.15;;;9.90;99.90;;;;;;7294928;32;20112;-56
2023/04/27 08:45:23;;;;;;;9.10;4.33;;;10.00;99.90;;;;;;7296973;32;20134;-57
2023/04/27 08:49:25;;;;;;;7.78;4.20;;;10.60;99.90;;;;;;7301303;32;20377;-57
2023/04/27 08:53:26;;;;;;;10.13;4.20;;;11.40;99.90;;;;;;7304735;32;20249;-57
2023/04/27 08:57:28;;;;;;;8.00;3.75;;;12.70;99.90;;;;;;7305096;32;20100;-58
2023/04/27 09:01:31;;;;;;;7.82;3.85;;;12.90;99.60;;;;;;7298604;32;20516;-55
2023/04/27 09:05:32;;;;;;;6.82;3.08;;;14.10;96.10;;;;;;7310511;32;20167;-56
2023/04/27 09:09:34;;;;;;;9.30;3.25;;;15.60;91.00;;;;;;7308708;32;20126;-56
2023/04/27 09:13:38;;;;;;;6.12;3.62;;;15.40;84.40;;;;;;7302871;32;20146;-56
2023/04/27 09:17:40;;;;;;;9.45;3.33;;;15.20;82.90;;;;;;7306291;32;20268;-56
2023/04/27 09:21:42;;;;;;;7.53;3.15;;;15.00;85.80;;;;;;7310285;32;20294;-56
2023/04/27 09:25:44;;;;;;;7.78;3.83;;;14.90;87.80;;;;;;7303746;32;20139;-56
2023/04/27 09:29:45;;;;;;;6.85;4.32;;;15.40;83.10;;;;;;7308504;32;20126;-55
2023/04/27 09:33:55;;;;;;;8.25;3.67;;;13.40;82.60;;;;;;7304328;32;20756;-56
2023/04/27 09:37:57;;;;;;;5.40;3.80;;;14.30;84.70;;;;;;7305261;32;20790;-56
2023/04/27 09:41:59;;;;;;;7.32;3.97;;;13.50;84.20;;;;;;7306477;32;20255;-56
2023/04/27 09:46:03;;;;;;;6.53;3.35;;;12.90;85.60;;;;;;7303973;32;20108;-56
2023/04/27 09:50:07;;;;;;;7.97;3.15;;;13.30;84.70;;;;;;7302453;32;20778;-56
2023/04/27 09:54:12;;;;;;;8.82;3.42;;;13.40;79.10;;;;;;7307669;32;20202;-56
2023/04/27 09:58:32;;;;;;;9.52;4.37;;;13.70;79.80;;;;;;7313113;32;20112;-56
2023/04/27 10:03:06;;;;;;;6.28;3.50;;;13.40;86.80;;;;;;7306131;32;20096;-56
2023/04/27 10:07:13;;;;;;;6.45;3.67;;;14.20;82.00;;;;;;7303316;32;20328;-56
2023/04/27 10:11:18;;;;;;;5.00;3.42;;;13.90;77.90;;;;;;7307859;32;20161;-56
2023/04/27 10:15:25;;;;;;;7.90;3.85;;;13.30;74.80;;;;;;7312222;32;20134;-56
2023/04/27 10:19:27;;;;;;;7.60;3.40;;;13.70;82.70;;;;;;7313787;32;20186;-56
2023/04/27 10:23:29;;;;;;;7.43;3.03;;;14.20;81.30;;;;;;7311744;32;20326;-57
2023/04/27 10:27:38;;;;;;;6.75;3.65;;;13.40;74.00;;;;;;7304036;32;20207;-56
2023/04/27 10:31:46;;;;;;;5.43;3.22;;;14.10;79.90;;;;;;7300344;32;20202;-56
2023/04/27 10:35:56;;;;;;;7.30;2.80;;;14.10;74.70;;;;;;7302974;32;20114;-56
2023/04/27 10:40:06;;;;;;;7.40;3.87;;;14.30;77.70;;;;;;7299652;32;20157;-54
2023/04/27 10:44:25;;;;;;;8.43;3.97;;;14.30;74.90;;;;;;7304450;32;20249;-57
2023/04/27 10:48:29;;;;;;;8.45;4.12;;;14.10;76.50;;;;;;7302152;32;20120;-56
2023/04/27 10:52:31;;;;;;;8.20;3.97;;;13.90;75.40;;;;;;7307875;32;20253;-56
2023/04/27 10:56:33;;;;;;;8.10;3.70;;;13.90;79.70;;;;;;7314660;32;20127;-56
2023/04/27 11:00:40;;;;;;;7.95;3.95;;;14.30;81.10;;;;;;7308029;32;20145;-56
2023/04/27 11:04:41;;;;;;;;;;;14.40;78.40;;;;;;7310553;32;20183;-56
2023/04/27 11:08:44;;;;;;;7.62;4.72;;;15.00;78.10;;;;;;7314687;32;20007;-56
2023/04/27 11:12:46;;;;;;;7.40;4.60;;;15.60;80.60;;;;;;7311101;32;20175;-57
2023/04/27 11:16:48;;;;;;;6.90;4.37;;;15.20;77.20;;;;;;7309723;32;20131;-58
2023/04/27 11:21:04;;;;;;;7.65;4.62;;;15.50;73.80;;;;;;7306343;32;20183;-57
2023/04/27 11:25:06;;;;;;;6.10;3.95;;;14.80;72.00;;;;;;7299947;32;20239;-56
2023/04/27 11:29:12;;;;;;;8.77;5.00;;;14.80;77.20;;;;;;7303903;32;20122;-57
2023/04/27 11:33:15;;;;;;;9.05;5.07;;;15.50;72.00;;;;;;7298395;32;20123;-56
2023/04/27 11:37:25;;;;;;;9.48;5.72;;;16.50;68.80;;;;;;7303347;32;20207;-57
2023/04/27 11:41:35;;;;;;;10.73;5.18;;;16.20;69.70;;;;;;7307817;32;20194;-56
2023/04/27 11:45:41;;;;;;;9.75;4.72;;;16.80;69.80;;;;;;7301538;32;20211;-56
2023/04/27 11:49:47;;;;;;;9.00;5.28;;;16.00;66.70;;;;;;7296094;32;20178;-56
2023/04/27 11:53:50;;;;;;;8.40;5.07;;;16.00;66.40;;;;;;7292798;32;20230;-56
2023/04/27 11:57:57;;;;;;;8.60;5.20;;;16.00;65.00;;;;;;7299002;32;20505;-57
2023/04/27 12:01:59;;;;;;;6.62;4.50;;;16.90;65.40;;;;;;7296306;32;20127;-57
2023/04/27 12:06:01;;;;;;;6.87;4.70;;;18.40;65.20;;;;;;7295765;32;20218;-57
2023/04/27 12:10:06;;;;;;;7.50;5.05;;;19.50;60.00;;;;;;7294685;32;20111;-56
2023/04/27 12:14:08;;;;;;;5.47;4.07;;;20.10;56.50;;;;;;7290685;32;20208;-55
2023/04/27 12:18:10;;;;;;;8.27;5.00;;;19.90;56.00;;;;;;7294979;32;20116;-56
2023/04/27 12:22:12;;;;;;;7.57;5.32;;;19.30;55.90;;;;;;7290356;32;20112;-57
2023/04/27 12:26:14;;;;;;;7.82;4.68;;;18.10;55.90;;;;;;7298277;32;20710;-56
2023/04/27 12:30:16;;;;;;;8.90;4.95;;;17.70;57.10;;;;;;7294380;32;20222;-56
2023/04/27 12:34:18;;;;;;;11.73;5.05;;;17.50;60.90;;;;;;7292878;32;20218;-56
2023/04/27 12:38:20;;;;;;;9.80;5.03;;;17.80;59.70;;;;;;7294232;32;20654;-57
2023/04/27 12:42:23;;;;;;;8.25;5.55;;;18.30;58.00;;;;;;7294361;32;20191;-57
2023/04/27 12:46:25;;;;;;;9.82;5.07;;;18.00;59.90;;;;;;7302501;32;20712;-56
2023/04/27 12:50:27;;;;;;;7.30;5.30;;;20.00;55.40;;;;;;7305302;32;20569;-56
2023/04/27 12:54:28;;;;;;;10.05;5.82;;;19.40;54.70;;;;;;7296779;32;20197;-56
2023/04/27 12:58:30;;;;;;;13.10;5.45;;;18.00;55.80;;;;;;7298006;32;20228;-57
2023/04/27 13:02:33;;;;;;;10.75;5.25;;;18.20;58.50;;;;;;7300835;32;20265;-55
2023/04/27 13:06:35;;;;;;;7.68;4.85;;;19.00;57.10;;;;;;7296724;32;20133;-58
2023/04/27 13:10:37;;;;;;;8.27;5.12;;;20.00;56.10;;;;;;7292395;32;20096;-55
2023/04/27 13:14:40;;;;;;;9.15;5.75;;;20.00;55.40;;;;;;7298489;32;20874;-54
2023/04/27 13:18:50;;;;;;;8.25;5.55;;;19.00;54.40;;;;;;7293765;32;20099;-54
2023/04/27 13:22:52;;;;;;;11.07;6.18;;;17.00;58.00;;;;;;7298363;32;20173;-56
2023/04/27 13:26:54;;;;;;;6.07;5.05;;;17.10;58.30;;;;;;7296007;32;22178;-56
2023/04/27 13:30:55;;;;;;;8.18;5.45;;;18.00;60.70;;;;;;7303973;32;20611;-56
2023/04/27 13:35:00;;;;;;;8.95;5.47;;;17.80;55.40;;;;;;7300086;32;20564;-56
2023/04/27 13:39:02;;;;;;;9.85;6.47;;;17.60;55.90;;;;;;7294842;32;20605;-56
2023/04/27 13:43:04;;;;;;;7.43;5.20;;;16.60;56.50;;;;;;7298215;32;20116;-55
2023/04/27 13:47:06;;;;;;;11.80;6.30;;;16.50;60.70;;;;;;7296720;32;20217;-56
2023/04/27 13:51:09;;;;;;;10.23;6.07;;;17.20;59.90;;;;;;7301248;32;20213;-56
2023/04/27 13:55:10;;;;;;;9.23;5.20;;;17.40;58.20;;;;;;7295987;32;20150;-57
2023/04/27 13:59:12;;;;;;;9.68;5.90;;;18.60;61.30;;;;;;7299158;32;20107;-56
2023/04/27 14:03:15;;;;;;;8.57;4.55;;;19.00;56.80;;;;;;7296100;32;20122;-56
2023/04/27 14:07:18;;;;;;;7.35;4.40;;;19.30;57.00;;;;;;7298428;32;20116;-56
2023/04/27 14:11:20;;;;;;;7.82;3.62;;;18.80;55.30;;;;;;7294583;32;20225;-56
2023/04/27 14:15:21;;;;;;;7.65;4.12;;;18.40;56.20;;;;;;7294984;32;20215;-55
2023/04/27 14:19:24;;;;;;;8.05;4.20;;;18.10;58.70;;;;;;7293297;32;20214;-56
2023/04/27 14:23:25;;;;;;;11.40;5.80;;;17.90;57.60;;;;;;7309725;32;21152;-55
2023/04/27 14:27:27;;;;;;;9.18;5.22;;;16.70;57.90;;;;;;7308062;32;20151;-55
2023/04/27 14:31:29;;;;;;;9.18;6.75;;;16.10;60.60;;;;;;7310060;32;20211;-56
2023/04/27 14:35:33;;;;;;;7.57;6.18;;;15.50;60.70;;;;;;7302233;32;20158;-56
2023/04/27 14:39:35;;;;;;;11.85;6.60;;;15.70;61.50;;;;;;7303640;32;20213;-56
2023/04/27 14:43:37;;;;;;;8.77;5.70;;;16.00;59.10;;;;;;7308470;32;20100;-56
2023/04/27 14:47:38;;;;;;;9.38;5.75;;;16.40;64.30;;;;;;7301505;32;20577;-56
2023/04/27 14:51:40;;;;;;;8.73;5.43;;;16.50;59.20;;;;;;7304467;32;20178;-56
2023/04/27 14:55:44;;;;;;;8.70;5.62;;;16.70;63.20;;;;;;7299473;32;20505;-56
2023/04/27 14:59:46;;;;;;;8.48;6.03;;;16.40;60.20;;;;;;7299529;32;20100;-56
2023/04/27 15:03:49;;;;;;;9.25;5.65;;;16.10;62.10;;;;;;7306849;32;20103;-56
2023/04/27 15:07:51;;;;;;;11.20;6.62;;;15.90;63.10;;;;;;7304906;32;20760;-56
2023/04/27 15:11:53;;;;;;;10.82;6.68;;;14.70;63.10;;;;;;7307571;32;20831;-55
2023/04/27 15:15:56;;;;;;;10.80;5.03;;;14.70;63.60;;;;;;7302808;32;20614;-55
2023/04/27 15:19:57;;;;;;;9.85;5.18;;;14.80;68.70;;;;;;7303319;32;20714;-55
2023/04/27 15:23:59;;;;;;;9.15;5.00;;;14.60;65.40;;;;;;7305806;32;20585;-55
2023/04/27 15:28:02;;;;;;;12.05;6.25;;;14.90;65.60;;;;;;7305627;32;20845;-56
2023/04/27 15:32:04;;;;;;;10.52;5.00;;;14.90;65.30;;;;;;7296923;32;20195;-56
2023/04/27 15:36:06;;;;;;;9.23;5.62;;;14.90;67.20;;;;;;7303289;32;20250;-56
2023/04/27 15:40:08;;;;;;;9.60;4.75;;;14.60;65.40;;;;;;7300213;32;20554;-56
2023/04/27 15:44:10;;;;;;;10.27;5.10;;;14.20;69.20;;;;;;7304040;32;20217;-56
2023/04/27 15:48:12;;;;;;;7.18;4.43;;;14.30;69.30;;;;;;7305935;32;20104;-56
2023/04/27 15:52:14;;;;;;;7.97;4.70;;;14.40;69.40;;;;;;7308789;32;20475;-56
2023/04/27 15:56:16;;;;;;;7.70;4.57;;;14.20;68.40;;;;;;7301206;32;20297;-56
2023/04/27 16:00:20;;;;;;;8.82;4.57;;;14.40;71.80;;;;;;7301357;32;20494;-57
2023/04/27 16:04:22;;;;;;;7.37;4.50;;;14.50;69.60;;;;;;7298076;32;20096;-56
2023/04/27 16:08:26;;;;;;;7.07;4.25;;;14.20;68.20;;;;;;7302323;32;20108;-56
2023/04/27 16:12:28;;;;;;;8.75;4.45;;;14.20;70.30;;;;;;7304165;32;20123;-56
2023/04/27 16:16:31;;;;;;;7.90;5.00;;;14.20;71.40;;;;;;7305194;32;20202;-55
2023/04/27 16:20:33;;;;;;;17.75;5.12;;;14.00;70.50;;;;;;7304895;32;20112;-55
2023/04/27 16:24:37;;;;;;;10.23;4.68;;;13.80;72.50;;;;;;7306955;32;20126;-55
2023/04/27 16:28:38;;;;;;;7.00;5.05;;;13.90;72.80;;;;;;7303536;32;20129;-55
2023/04/27 16:32:40;;;;;;;9.90;4.72;;;13.80;71.80;;;;;;7303539;32;20340;-55
2023/04/27 16:36:42;;;;;;;9.38;4.37;;;13.80;74.30;;;;;;7302145;32;20154;-56
2023/04/27 16:40:44;;;;;;;10.20;4.70;;;13.90;73.50;;;;;;7302944;32;20306;-55
2023/04/27 16:44:46;;;;;;;9.00;5.50;;;13.90;73.30;;;;;;7301102;32;20118;-56
2023/04/27 16:48:48;;;;;;;9.30;4.70;;;13.90;71.70;;;;;;7303026;32;20100;-55
2023/04/27 16:52:49;;;;;;;7.90;5.12;;;13.60;70.80;;;;;;7303564;32;20189;-56
2023/04/27 16:56:51;;;;;;;8.77;4.53;;;13.50;71.50;;;;;;7304512;32;20183;-56
2023/04/27 17:00:56;;;;;;;10.25;4.80;;;13.30;73.90;;;;;;7306795;32;20095;-56
2023/04/27 17:04:59;;;;;;;7.10;5.00;;;13.30;73.30;;;;;;7309857;32;20092;-56
2023/04/27 17:09:01;;;;;;;8.70;4.35;;;13.20;73.80;;;;;;7305083;32;20116;-56
2023/04/27 17:13:04;;;;;;;10.82;4.68;;;13.20;75.00;;;;;;7312551;32;20125;-56
2023/04/27 17:17:06;;;;;;;9.13;5.18;;;13.10;75.00;;;;;;7303293;32;20126;-56
2023/04/27 17:21:08;;;;;;;9.02;5.00;;;13.00;77.10;;;;;;7309956;32;20213;-55
2023/04/27 17:25:10;;;;;;;6.70;4.53;;;12.90;76.30;;;;;;7305544;32;20222;-56
2023/04/27 17:29:14;;;;;;;11.23;5.22;;;12.80;77.30;;;;;;7306257;32;20246;-57
2023/04/27 17:33:16;;;;;;;8.38;4.57;;;12.80;75.80;;;;;;7303870;32;20206;-56
2023/04/27 17:37:18;;;;;;;11.63;4.95;;;12.70;77.20;;;;;;7304050;32;20204;-56
2023/04/27 17:41:20;;;;;;;6.62;4.47;;;12.50;77.40;;;;;;7301370;32;20218;-56
2023/04/27 17:45:23;;;;;;;8.25;4.55;;;12.40;78.80;;;;;;7305974;32;20359;-56
2023/04/27 17:49:24;;;;;;;8.57;4.62;;;12.40;79.40;;;;;;7301217;32;20194;-55
2023/04/27 17:53:26;;;;;;;7.65;4.50;;;12.30;81.30;;;;;;7292137;32;20125;-55
2023/04/27 17:57:28;;;;;;;10.63;4.75;;;12.20;80.40;;;;;;7297303;32;20295;-56
2023/04/27 18:01:29;;;;;;;8.80;5.15;;;12.10;83.10;;;;;;7298363;32;20290;-56
2023/04/27 18:05:31;;;;;;;8.52;4.47;;;12.10;82.10;;;;;;7295592;32;20186;-56
2023/04/27 18:09:33;;;;;;;10.68;4.70;;;12.00;83.20;;;;;;7298607;32;20147;-56
2023/04/27 18:13:35;;;;;;;9.15;4.90;;;11.90;84.10;;;;;;7297868;32;20517;-56
2023/04/27 18:17:37;;;;;;;8.07;4.55;;;11.80;84.30;;;;;;7296973;32;20462;-55
2023/04/27 18:21:38;;;;;;;7.12;4.15;;;11.70;85.20;;;;;;7300687;32;20237;-55
2023/04/27 18:25:40;;;;;;;7.40;4.20;;;11.70;86.00;;;;;;7295052;32;20226;-57
2023/04/27 18:29:42;;;;;;;7.53;4.15;;;11.60;86.30;;;;;;7294783;32;20104;-57
2023/04/27 18:33:45;;;;;;;9.35;4.75;;;11.60;88.40;;;;;;7293654;32;20232;-57
2023/04/27 18:37:48;;;;;;;7.95;5.40;;;11.50;89.00;;;;;;7292009;32;20187;-57
2023/04/27 18:41:49;;;;;;;8.55;4.93;;;11.50;87.00;;;;;;7300138;32;20126;-57
2023/04/27 18:45:51;;;;;;;10.57;5.68;;;11.40;89.20;;;;;;7295555;32;20227;-57
2023/04/27 18:49:53;;;;;;;8.32;5.07;;;11.40;89.10;;;;;;7297247;32;20115;-56
2023/04/27 18:53:55;;;;;;;8.70;5.12;;;11.30;88.70;;;;;;7294516;32;20100;-55
2023/04/27 18:57:56;;;;;;;8.27;5.60;;;11.30;89.70;;;;;;7294139;32;20127;-55
2023/04/27 19:01:58;;;;;;;8.60;4.75;;;11.20;90.80;;;;;;7296306;32;20154;-55
2023/04/27 19:06:00;;;;;;;7.93;5.25;;;11.20;91.00;;;;;;7310764;32;20215;-55
2023/04/27 19:10:02;;;;;;;9.32;5.30;;;11.10;90.70;;;;;;7302367;32;20134;-54
2023/04/27 19:14:04;;;;;;;7.00;4.97;;;11.10;91.00;;;;;;7297536;32;20875;-54
2023/04/27 19:18:06;;;;;;;8.70;4.75;;;11.00;91.00;;;;;;7296732;32;20180;-55
2023/04/27 19:22:12;;;;;;;8.43;4.90;;;11.10;91.40;;;;;;7299262;32;20195;-55
2023/04/27 19:26:14;;;;;;;10.63;5.15;;;10.90;91.20;;;;;;7304401;32;20234;-54
2023/04/27 19:30:15;;;;;;;7.68;4.50;;;10.90;91.80;;;;;;7300323;32;20499;-56
2023/04/27 19:34:17;;;;;;;8.43;4.85;;;10.90;92.30;;;;;;7297886;32;20114;-55
2023/04/27 19:38:21;;;;;;;8.73;5.70;;;10.80;92.30;;;;;;7301641;32;20545;-55
2023/04/27 19:42:23;;;;;;;9.32;5.43;;;10.80;92.20;;;;;;7293758;32;20111;-55
2023/04/27 19:46:25;;;;;;;8.82;5.37;;;10.80;92.60;;;;;;7305112;32;20186;-55
2023/04/27 19:50:27;;;;;;;8.90;5.07;;;10.70;93.30;;;;;;7295387;32;20177;-55
2023/04/27 19:54:29;;;;;;;11.70;5.50;;;10.70;92.80;;;;;;7296135;32;20250;-54
2023/04/27 19:58:30;;;;;;;8.05;5.53;;;10.70;93.70;;;;;;7316268;32;20186;-55
2023/04/27 20:02:32;;;;;;;9.02;5.28;;;10.60;94.30;;;;;;7295519;32;20187;-55
2023/04/27 20:06:34;;;;;;;9.95;5.80;;;10.70;93.80;;;;;;7296083;32;20876;-55
2023/04/27 20:10:36;;;;;;;9.80;5.22;;;10.60;94.40;;;;;;7301267;32;20097;-55
2023/04/27 20:14:38;;;;;;;6.85;5.10;;;10.50;94.80;;;;;;7295953;32;20127;-56
2023/04/27 20:18:42;;;;;;;8.75;6.07;;;10.50;94.60;;;;;;7302410;32;20123;-55
2023/04/27 20:22:44;;;;;;;9.38;5.65;;;10.50;94.50;;;;;;7292840;32;20119;-55
2023/04/27 20:26:46;;;;;;;7.43;5.22;;;10.50;94.80;;;;;;7306053;32;20705;-55
2023/04/27 20:30:47;;;;;;;11.00;5.80;;;10.50;95.40;;;;;;7296398;32;20112;-55
2023/04/27 20:34:49;;;;;;;7.82;5.50;;;10.40;94.80;;;;;;7295616;32;20495;-55
2023/04/27 20:38:51;;;;;;;8.93;5.70;;;10.40;94.90;;;;;;7296219;32;20190;-54
2023/04/27 20:42:52;;;;;;;14.18;6.10;;;10.40;94.50;;;;;;7297634;32;20108;-55
2023/04/27 20:46:54;;;;;;;10.32;5.90;;;10.40;95.30;;;;;;7298524;32;20156;-55
2023/04/27 20:50:56;;;;;;;8.95;5.60;;;10.40;95.20;;;;;;7298361;32;20693;-55
2023/04/27 20:54:58;;;;;;;10.40;5.40;;;10.40;94.70;;;;;;7298741;32;20510;-55
2023/04/27 20:58:59;;;;;;;11.52;5.43;;;10.40;95.30;;;;;;7299529;32;20108;-56
2023/04/27 21:03:01;;;;;;;9.60;5.15;;;10.30;96.00;;;;;;7305295;32;20277;-55